Terminal Aerodrome Forecast
Issued by NWS Omaha/Valley, NE

Home | Current Version | Previous Version | Text Only | Print | Product List | Glossary Off
Versions: 1 2 3 4 5 6 7 8 9 10 11 12 13 14 15 16 17 18 19 20 21 22 23 24 25 26 27 28 29 30 31 32 33 34 35 36 37 38

000
FTUS43 KOAX 131509 AAA
TAFOFK
TAF AMD
KOFK 131509Z 1315/1412 18011KT P6SM SCT025
     FM131900 18014G22KT P6SM SCT035
     FM140000 18010KT P6SM BKN050
     FM140300 VRB04KT P6SM SCT050 SCT250=

USA.gov is the U.S. government's official web portal to all federal, state and local government web resources and services.